sensor_id;sensor_type;location;lat;lon;timestamp;P1;durP1;ratioP1;P2;durP2;ratioP2
20415;SDS011;10367;52.202;5.996;2023-06-10T00:01:16;20.73;;;19.13;;
20415;SDS011;10367;52.202;5.996;2023-06-10T00:03:49;23.23;;;20.37;;
20415;SDS011;10367;52.202;5.996;2023-06-10T00:06:27;22.53;;;20.63;;
20415;SDS011;10367;52.202;5.996;2023-06-10T00:09:02;22.63;;;20.63;;
20415;SDS011;10367;52.202;5.996;2023-06-10T00:11:33;22.20;;;20.27;;
20415;SDS011;10367;52.202;5.996;2023-06-10T00:14:02;22.30;;;20.50;;
20415;SDS011;10367;52.202;5.996;2023-06-10T00:16:41;21.17;;;19.57;;
20415;SDS011;10367;52.202;5.996;2023-06-10T00:19:16;23.50;;;20.93;;
20415;SDS011;10367;52.202;5.996;2023-06-10T00:21:54;23.37;;;21.23;;
20415;SDS011;10367;52.202;5.996;2023-06-10T00:24:27;21.37;;;19.97;;
20415;SDS011;10367;52.202;5.996;2023-06-10T00:26:57;27.73;;;21.33;;
20415;SDS011;10367;52.202;5.996;2023-06-10T00:29:26;23.73;;;19.53;;
20415;SDS011;10367;52.202;5.996;2023-06-10T00:32:02;22.83;;;20.73;;
20415;SDS011;10367;52.202;5.996;2023-06-10T00:34:37;20.33;;;18.83;;
20415;SDS011;10367;52.202;5.996;2023-06-10T00:37:06;22.13;;;20.27;;
20415;SDS011;10367;52.202;5.996;2023-06-10T00:39:36;21.53;;;19.53;;
20415;SDS011;10367;52.202;5.996;2023-06-10T00:42:06;22.27;;;20.43;;
20415;SDS011;10367;52.202;5.996;2023-06-10T00:44:40;21.23;;;19.60;;
20415;SDS011;10367;52.202;5.996;2023-06-10T00:47:28;21.17;;;19.27;;
20415;SDS011;10367;52.202;5.996;2023-06-10T00:49:57;21.37;;;19.63;;
20415;SDS011;10367;52.202;5.996;2023-06-10T00:52:27;21.53;;;19.97;;
20415;SDS011;10367;52.202;5.996;2023-06-10T00:54:57;21.57;;;19.93;;
20415;SDS011;10367;52.202;5.996;2023-06-10T00:57:27;20.30;;;18.77;;
20415;SDS011;10367;52.202;5.996;2023-06-10T00:59:56;20.93;;;18.67;;
20415;SDS011;10367;52.202;5.996;2023-06-10T01:02:25;20.37;;;18.60;;
20415;SDS011;10367;52.202;5.996;2023-06-10T01:04:58;21.23;;;19.40;;
20415;SDS011;10367;52.202;5.996;2023-06-10T01:07:31;21.30;;;19.20;;
20415;SDS011;10367;52.202;5.996;2023-06-10T01:10:08;78.37;;;23.37;;
20415;SDS011;10367;52.202;5.996;2023-06-10T01:12:44;21.60;;;19.80;;
20415;SDS011;10367;52.202;5.996;2023-06-10T01:15:21;19.80;;;18.10;;
20415;SDS011;10367;52.202;5.996;2023-06-10T01:17:58;20.60;;;18.97;;
20415;SDS011;10367;52.202;5.996;2023-06-10T01:20:29;22.70;;;20.73;;
20415;SDS011;10367;52.202;5.996;2023-06-10T01:23:04;20.70;;;18.93;;
20415;SDS011;10367;52.202;5.996;2023-06-10T01:25:36;20.93;;;19.23;;
20415;SDS011;10367;52.202;5.996;2023-06-10T01:28:09;21.50;;;19.60;;
20415;SDS011;10367;52.202;5.996;2023-06-10T01:30:43;20.77;;;19.07;;
20415;SDS011;10367;52.202;5.996;2023-06-10T01:33:21;21.70;;;19.70;;
20415;SDS011;10367;52.202;5.996;2023-06-10T01:35:56;21.97;;;19.90;;
20415;SDS011;10367;52.202;5.996;2023-06-10T01:38:29;20.17;;;18.37;;
20415;SDS011;10367;52.202;5.996;2023-06-10T01:41:01;22.70;;;20.50;;
20415;SDS011;10367;52.202;5.996;2023-06-10T01:43:32;20.83;;;19.07;;
20415;SDS011;10367;52.202;5.996;2023-06-10T01:46:01;20.07;;;18.10;;
20415;SDS011;10367;52.202;5.996;2023-06-10T01:48:31;20.30;;;18.63;;
20415;SDS011;10367;52.202;5.996;2023-06-10T01:51:03;21.70;;;19.93;;
20415;SDS011;10367;52.202;5.996;2023-06-10T01:53:35;21.27;;;19.33;;
20415;SDS011;10367;52.202;5.996;2023-06-10T01:56:04;21.10;;;19.30;;
20415;SDS011;10367;52.202;5.996;2023-06-10T01:58:36;22.17;;;18.80;;
20415;SDS011;10367;52.202;5.996;2023-06-10T02:01:07;24.27;;;18.20;;
20415;SDS011;10367;52.202;5.996;2023-06-10T02:03:36;21.03;;;19.23;;
20415;SDS011;10367;52.202;5.996;2023-06-10T02:06:06;20.77;;;19.03;;
20415;SDS011;10367;52.202;5.996;2023-06-10T02:08:38;20.23;;;18.70;;
20415;SDS011;10367;52.202;5.996;2023-06-10T02:11:06;19.60;;;18.10;;
20415;SDS011;10367;52.202;5.996;2023-06-10T02:13:35;20.37;;;18.20;;
20415;SDS011;10367;52.202;5.996;2023-06-10T02:16:07;20.27;;;18.60;;
20415;SDS011;10367;52.202;5.996;2023-06-10T02:18:40;20.90;;;18.83;;
20415;SDS011;10367;52.202;5.996;2023-06-10T02:21:10;20.47;;;18.70;;
20415;SDS011;10367;52.202;5.996;2023-06-10T02:23:40;20.30;;;18.20;;
20415;SDS011;10367;52.202;5.996;2023-06-10T02:26:09;20.37;;;18.60;;
20415;SDS011;10367;52.202;5.996;2023-06-10T02:28:42;20.63;;;19.03;;
20415;SDS011;10367;52.202;5.996;2023-06-10T02:31:11;20.67;;;18.77;;
20415;SDS011;10367;52.202;5.996;2023-06-10T02:33:39;19.73;;;18.03;;
20415;SDS011;10367;52.202;5.996;2023-06-10T02:36:09;24.33;;;19.47;;
20415;SDS011;10367;52.202;5.996;2023-06-10T02:38:41;20.67;;;17.87;;
20415;SDS011;10367;52.202;5.996;2023-06-10T02:41:19;27.13;;;19.63;;
20415;SDS011;10367;52.202;5.996;2023-06-10T02:43:49;20.40;;;18.60;;
20415;SDS011;10367;52.202;5.996;2023-06-10T02:46:18;21.33;;;19.20;;
20415;SDS011;10367;52.202;5.996;2023-06-10T02:48:47;21.20;;;19.20;;
20415;SDS011;10367;52.202;5.996;2023-06-10T02:51:19;19.73;;;18.03;;
20415;SDS011;10367;52.202;5.996;2023-06-10T02:53:49;19.37;;;17.60;;
20415;SDS011;10367;52.202;5.996;2023-06-10T02:56:18;39.67;;;19.10;;
20415;SDS011;10367;52.202;5.996;2023-06-10T02:58:48;19.87;;;18.03;;
20415;SDS011;10367;52.202;5.996;2023-06-10T03:01:24;21.10;;;18.93;;
20415;SDS011;10367;52.202;5.996;2023-06-10T03:04:07;21.77;;;18.30;;
20415;SDS011;10367;52.202;5.996;2023-06-10T03:06:37;25.70;;;17.90;;
20415;SDS011;10367;52.202;5.996;2023-06-10T03:09:10;22.27;;;20.07;;
20415;SDS011;10367;52.202;5.996;2023-06-10T03:11:41;20.83;;;18.83;;
20415;SDS011;10367;52.202;5.996;2023-06-10T03:14:12;20.50;;;18.33;;
20415;SDS011;10367;52.202;5.996;2023-06-10T03:16:42;21.10;;;18.97;;
20415;SDS011;10367;52.202;5.996;2023-06-10T03:19:12;22.00;;;19.67;;
20415;SDS011;10367;52.202;5.996;2023-06-10T03:22:06;21.93;;;18.83;;
20415;SDS011;10367;52.202;5.996;2023-06-10T03:24:37;20.27;;;18.37;;
20415;SDS011;10367;52.202;5.996;2023-06-10T03:27:10;20.77;;;18.83;;
20415;SDS011;10367;52.202;5.996;2023-06-10T03:29:42;21.77;;;19.77;;
20415;SDS011;10367;52.202;5.996;2023-06-10T03:32:16;20.33;;;18.37;;
20415;SDS011;10367;52.202;5.996;2023-06-10T03:34:58;19.97;;;18.27;;
20415;SDS011;10367;52.202;5.996;2023-06-10T03:37:27;22.97;;;19.67;;
20415;SDS011;10367;52.202;5.996;2023-06-10T03:39:58;22.00;;;19.83;;
20415;SDS011;10367;52.202;5.996;2023-06-10T03:42:27;19.50;;;17.73;;
20415;SDS011;10367;52.202;5.996;2023-06-10T03:44:58;19.70;;;17.80;;
20415;SDS011;10367;52.202;5.996;2023-06-10T03:47:33;19.23;;;17.57;;
20415;SDS011;10367;52.202;5.996;2023-06-10T03:50:06;21.37;;;19.37;;
20415;SDS011;10367;52.202;5.996;2023-06-10T03:52:37;19.10;;;17.17;;
20415;SDS011;10367;52.202;5.996;2023-06-10T03:55:08;19.77;;;17.80;;
20415;SDS011;10367;52.202;5.996;2023-06-10T03:57:38;21.37;;;18.37;;
20415;SDS011;10367;52.202;5.996;2023-06-10T04:00:08;20.00;;;18.10;;
20415;SDS011;10367;52.202;5.996;2023-06-10T04:02:39;20.33;;;18.33;;
20415;SDS011;10367;52.202;5.996;2023-06-10T04:05:13;19.17;;;17.60;;
20415;SDS011;10367;52.202;5.996;2023-06-10T04:07:42;18.87;;;17.13;;
20415;SDS011;10367;52.202;5.996;2023-06-10T04:10:16;18.23;;;16.73;;
20415;SDS011;10367;52.202;5.996;2023-06-10T04:12:54;18.77;;;17.13;;
20415;SDS011;10367;52.202;5.996;2023-06-10T04:15:23;20.60;;;18.50;;
20415;SDS011;10367;52.202;5.996;2023-06-10T04:17:53;19.47;;;17.57;;
20415;SDS011;10367;52.202;5.996;2023-06-10T04:20:22;19.03;;;17.43;;
20415;SDS011;10367;52.202;5.996;2023-06-10T04:22:56;20.03;;;18.13;;
20415;SDS011;10367;52.202;5.996;2023-06-10T04:25:35;20.07;;;18.33;;
20415;SDS011;10367;52.202;5.996;2023-06-10T04:28:07;21.20;;;18.77;;
20415;SDS011;10367;52.202;5.996;2023-06-10T04:30:37;20.10;;;18.00;;
20415;SDS011;10367;52.202;5.996;2023-06-10T04:33:10;20.23;;;18.07;;
20415;SDS011;10367;52.202;5.996;2023-06-10T04:35:54;20.77;;;18.77;;
20415;SDS011;10367;52.202;5.996;2023-06-10T04:38:31;20.20;;;18.20;;
20415;SDS011;10367;52.202;5.996;2023-06-10T04:41:02;20.50;;;18.00;;
20415;SDS011;10367;52.202;5.996;2023-06-10T04:43:31;21.47;;;19.17;;
20415;SDS011;10367;52.202;5.996;2023-06-10T04:46:08;21.13;;;19.03;;
20415;SDS011;10367;52.202;5.996;2023-06-10T04:48:39;20.13;;;18.43;;
20415;SDS011;10367;52.202;5.996;2023-06-10T04:51:16;20.53;;;18.63;;
20415;SDS011;10367;52.202;5.996;2023-06-10T04:53:52;20.43;;;18.37;;
20415;SDS011;10367;52.202;5.996;2023-06-10T04:56:23;18.77;;;17.20;;
20415;SDS011;10367;52.202;5.996;2023-06-10T04:58:55;19.30;;;17.60;;
20415;SDS011;10367;52.202;5.996;2023-06-10T05:01:28;22.83;;;20.27;;
20415;SDS011;10367;52.202;5.996;2023-06-10T05:03:59;21.83;;;19.70;;
20415;SDS011;10367;52.202;5.996;2023-06-10T05:06:35;19.90;;;18.30;;
20415;SDS011;10367;52.202;5.996;2023-06-10T05:09:04;21.50;;;19.57;;
20415;SDS011;10367;52.202;5.996;2023-06-10T05:11:35;21.10;;;19.10;;
20415;SDS011;10367;52.202;5.996;2023-06-10T05:14:04;21.03;;;19.10;;
20415;SDS011;10367;52.202;5.996;2023-06-10T05:16:33;20.57;;;18.63;;
20415;SDS011;10367;52.202;5.996;2023-06-10T05:19:02;21.43;;;19.53;;
20415;SDS011;10367;52.202;5.996;2023-06-10T05:21:37;20.47;;;18.60;;
20415;SDS011;10367;52.202;5.996;2023-06-10T05:24:07;23.00;;;20.63;;
20415;SDS011;10367;52.202;5.996;2023-06-10T05:26:37;22.60;;;20.50;;
20415;SDS011;10367;52.202;5.996;2023-06-10T05:29:11;22.83;;;20.73;;
20415;SDS011;10367;52.202;5.996;2023-06-10T05:31:42;20.90;;;19.00;;
20415;SDS011;10367;52.202;5.996;2023-06-10T05:34:14;21.70;;;19.73;;
20415;SDS011;10367;52.202;5.996;2023-06-10T05:36:48;22.77;;;20.60;;
20415;SDS011;10367;52.202;5.996;2023-06-10T05:39:22;21.33;;;19.50;;
20415;SDS011;10367;52.202;5.996;2023-06-10T05:41:58;22.07;;;20.10;;
20415;SDS011;10367;52.202;5.996;2023-06-10T05:44:31;21.33;;;18.90;;
20415;SDS011;10367;52.202;5.996;2023-06-10T05:47:03;22.23;;;20.23;;
20415;SDS011;10367;52.202;5.996;2023-06-10T05:49:32;21.93;;;20.03;;
20415;SDS011;10367;52.202;5.996;2023-06-10T05:52:15;22.17;;;20.17;;
20415;SDS011;10367;52.202;5.996;2023-06-10T05:54:45;21.07;;;19.17;;
20415;SDS011;10367;52.202;5.996;2023-06-10T05:57:17;22.80;;;20.33;;
20415;SDS011;10367;52.202;5.996;2023-06-10T05:59:53;21.20;;;19.20;;
20415;SDS011;10367;52.202;5.996;2023-06-10T06:02:28;20.93;;;18.97;;
20415;SDS011;10367;52.202;5.996;2023-06-10T06:05:05;23.50;;;19.10;;
20415;SDS011;10367;52.202;5.996;2023-06-10T06:07:41;22.97;;;20.80;;
20415;SDS011;10367;52.202;5.996;2023-06-10T06:10:55;21.90;;;20.00;;
20415;SDS011;10367;52.202;5.996;2023-06-10T06:13:30;24.70;;;22.27;;
20415;SDS011;10367;52.202;5.996;2023-06-10T06:16:19;21.37;;;19.30;;
20415;SDS011;10367;52.202;5.996;2023-06-10T06:18:53;21.60;;;19.60;;
20415;SDS011;10367;52.202;5.996;2023-06-10T06:21:23;21.27;;;19.57;;
20415;SDS011;10367;52.202;5.996;2023-06-10T06:24:00;24.07;;;21.10;;
20415;SDS011;10367;52.202;5.996;2023-06-10T06:26:32;22.63;;;20.60;;
20415;SDS011;10367;52.202;5.996;2023-06-10T06:29:08;23.60;;;21.20;;
20415;SDS011;10367;52.202;5.996;2023-06-10T06:31:42;21.47;;;19.57;;
20415;SDS011;10367;52.202;5.996;2023-06-10T06:34:14;23.03;;;20.77;;
20415;SDS011;10367;52.202;5.996;2023-06-10T06:36:44;22.00;;;19.60;;
20415;SDS011;10367;52.202;5.996;2023-06-10T06:39:13;24.43;;;21.70;;
20415;SDS011;10367;52.202;5.996;2023-06-10T06:41:44;23.73;;;21.47;;
20415;SDS011;10367;52.202;5.996;2023-06-10T06:44:15;24.63;;;22.30;;
20415;SDS011;10367;52.202;5.996;2023-06-10T06:46:49;23.50;;;21.30;;
20415;SDS011;10367;52.202;5.996;2023-06-10T06:49:18;23.17;;;20.93;;
20415;SDS011;10367;52.202;5.996;2023-06-10T06:51:50;22.43;;;20.40;;
20415;SDS011;10367;52.202;5.996;2023-06-10T06:54:19;23.40;;;21.40;;
20415;SDS011;10367;52.202;5.996;2023-06-10T06:56:48;23.70;;;21.40;;
20415;SDS011;10367;52.202;5.996;2023-06-10T06:59:18;24.10;;;22.00;;
20415;SDS011;10367;52.202;5.996;2023-06-10T07:01:47;25.80;;;23.17;;
20415;SDS011;10367;52.202;5.996;2023-06-10T07:04:16;25.70;;;23.13;;
20415;SDS011;10367;52.202;5.996;2023-06-10T07:06:46;23.50;;;21.60;;
20415;SDS011;10367;52.202;5.996;2023-06-10T07:09:15;23.63;;;21.57;;
20415;SDS011;10367;52.202;5.996;2023-06-10T07:11:44;24.93;;;22.60;;
20415;SDS011;10367;52.202;5.996;2023-06-10T07:14:15;24.87;;;22.73;;
20415;SDS011;10367;52.202;5.996;2023-06-10T07:16:47;23.60;;;21.70;;
20415;SDS011;10367;52.202;5.996;2023-06-10T07:19:16;23.17;;;21.27;;
20415;SDS011;10367;52.202;5.996;2023-06-10T07:21:53;24.20;;;22.17;;
20415;SDS011;10367;52.202;5.996;2023-06-10T07:24:22;21.90;;;19.93;;
20415;SDS011;10367;52.202;5.996;2023-06-10T07:26:53;24.27;;;21.83;;
20415;SDS011;10367;52.202;5.996;2023-06-10T07:29:25;25.20;;;23.13;;
20415;SDS011;10367;52.202;5.996;2023-06-10T07:32:00;25.27;;;23.10;;
20415;SDS011;10367;52.202;5.996;2023-06-10T07:34:32;24.70;;;22.80;;
20415;SDS011;10367;52.202;5.996;2023-06-10T07:37:06;26.63;;;24.27;;
20415;SDS011;10367;52.202;5.996;2023-06-10T07:39:41;26.07;;;23.60;;
20415;SDS011;10367;52.202;5.996;2023-06-10T07:42:13;25.43;;;23.17;;
20415;SDS011;10367;52.202;5.996;2023-06-10T07:44:46;25.37;;;23.37;;
20415;SDS011;10367;52.202;5.996;2023-06-10T07:47:22;24.40;;;22.37;;
20415;SDS011;10367;52.202;5.996;2023-06-10T07:49:51;23.37;;;21.73;;
20415;SDS011;10367;52.202;5.996;2023-06-10T07:52:27;26.13;;;23.93;;
20415;SDS011;10367;52.202;5.996;2023-06-10T07:55:04;25.00;;;22.87;;
20415;SDS011;10367;52.202;5.996;2023-06-10T07:57:34;26.77;;;24.13;;
20415;SDS011;10367;52.202;5.996;2023-06-10T08:00:12;28.70;;;26.07;;
20415;SDS011;10367;52.202;5.996;2023-06-10T08:02:45;25.73;;;23.23;;
20415;SDS011;10367;52.202;5.996;2023-06-10T08:05:28;27.33;;;24.80;;
20415;SDS011;10367;52.202;5.996;2023-06-10T08:07:57;26.47;;;24.20;;
20415;SDS011;10367;52.202;5.996;2023-06-10T08:10:29;25.93;;;23.83;;
20415;SDS011;10367;52.202;5.996;2023-06-10T08:13:00;29.10;;;26.17;;
20415;SDS011;10367;52.202;5.996;2023-06-10T08:15:31;28.53;;;25.87;;
20415;SDS011;10367;52.202;5.996;2023-06-10T08:18:02;25.17;;;23.17;;
20415;SDS011;10367;52.202;5.996;2023-06-10T08:20:31;27.40;;;25.00;;
20415;SDS011;10367;52.202;5.996;2023-06-10T08:23:00;27.77;;;24.90;;
20415;SDS011;10367;52.202;5.996;2023-06-10T08:25:34;26.07;;;24.07;;
20415;SDS011;10367;52.202;5.996;2023-06-10T08:28:03;25.80;;;23.70;;
20415;SDS011;10367;52.202;5.996;2023-06-10T08:30:32;29.07;;;26.70;;
20415;SDS011;10367;52.202;5.996;2023-06-10T08:33:05;27.73;;;25.47;;
20415;SDS011;10367;52.202;5.996;2023-06-10T08:35:38;26.13;;;23.93;;
20415;SDS011;10367;52.202;5.996;2023-06-10T08:38:07;27.90;;;24.83;;
20415;SDS011;10367;52.202;5.996;2023-06-10T08:40:36;25.37;;;23.27;;
20415;SDS011;10367;52.202;5.996;2023-06-10T08:43:06;30.97;;;28.10;;
20415;SDS011;10367;52.202;5.996;2023-06-10T08:45:38;25.87;;;23.87;;
20415;SDS011;10367;52.202;5.996;2023-06-10T08:48:11;28.80;;;26.07;;
20415;SDS011;10367;52.202;5.996;2023-06-10T08:50:42;27.53;;;24.97;;
20415;SDS011;10367;52.202;5.996;2023-06-10T08:53:13;27.37;;;24.70;;
20415;SDS011;10367;52.202;5.996;2023-06-10T08:55:50;27.97;;;25.53;;
20415;SDS011;10367;52.202;5.996;2023-06-10T08:58:25;27.07;;;25.00;;
20415;SDS011;10367;52.202;5.996;2023-06-10T09:01:03;28.97;;;26.30;;
20415;SDS011;10367;52.202;5.996;2023-06-10T09:03:35;26.93;;;24.93;;
20415;SDS011;10367;52.202;5.996;2023-06-10T09:06:05;27.40;;;24.97;;
20415;SDS011;10367;52.202;5.996;2023-06-10T09:08:35;27.90;;;25.70;;
20415;SDS011;10367;52.202;5.996;2023-06-10T09:11:04;28.17;;;25.83;;
20415;SDS011;10367;52.202;5.996;2023-06-10T09:13:33;29.00;;;26.50;;
20415;SDS011;10367;52.202;5.996;2023-06-10T09:16:02;28.50;;;26.07;;
20415;SDS011;10367;52.202;5.996;2023-06-10T09:18:31;29.10;;;26.77;;
20415;SDS011;10367;52.202;5.996;2023-06-10T09:21:03;28.90;;;26.07;;
20415;SDS011;10367;52.202;5.996;2023-06-10T09:23:31;28.27;;;25.57;;
20415;SDS011;10367;52.202;5.996;2023-06-10T09:26:01;29.10;;;26.73;;
20415;SDS011;10367;52.202;5.996;2023-06-10T09:28:36;27.77;;;25.73;;
20415;SDS011;10367;52.202;5.996;2023-06-10T09:31:06;29.80;;;27.17;;
20415;SDS011;10367;52.202;5.996;2023-06-10T09:33:37;29.77;;;27.17;;
20415;SDS011;10367;52.202;5.996;2023-06-10T09:36:08;30.17;;;27.87;;
20415;SDS011;10367;52.202;5.996;2023-06-10T09:38:38;28.67;;;26.47;;
20415;SDS011;10367;52.202;5.996;2023-06-10T09:41:07;28.70;;;26.33;;
20415;SDS011;10367;52.202;5.996;2023-06-10T09:43:39;28.63;;;26.53;;
20415;SDS011;10367;52.202;5.996;2023-06-10T09:46:14;29.00;;;26.80;;
20415;SDS011;10367;52.202;5.996;2023-06-10T09:48:44;28.60;;;26.50;;
20415;SDS011;10367;52.202;5.996;2023-06-10T09:51:15;28.37;;;26.33;;
20415;SDS011;10367;52.202;5.996;2023-06-10T09:53:47;27.13;;;25.13;;
20415;SDS011;10367;52.202;5.996;2023-06-10T09:56:21;28.53;;;26.43;;
20415;SDS011;10367;52.202;5.996;2023-06-10T09:59:00;29.80;;;27.40;;
20415;SDS011;10367;52.202;5.996;2023-06-10T10:01:30;29.97;;;27.37;;
20415;SDS011;10367;52.202;5.996;2023-06-10T10:04:00;30.70;;;28.40;;
20415;SDS011;10367;52.202;5.996;2023-06-10T10:06:30;29.10;;;26.90;;
20415;SDS011;10367;52.202;5.996;2023-06-10T10:09:00;30.87;;;28.27;;
20415;SDS011;10367;52.202;5.996;2023-06-10T10:11:30;29.87;;;27.47;;
20415;SDS011;10367;52.202;5.996;2023-06-10T10:14:01;29.47;;;27.43;;
20415;SDS011;10367;52.202;5.996;2023-06-10T10:16:36;27.63;;;25.70;;
20415;SDS011;10367;52.202;5.996;2023-06-10T10:19:10;30.43;;;28.17;;
20415;SDS011;10367;52.202;5.996;2023-06-10T10:21:47;28.57;;;26.67;;
20415;SDS011;10367;52.202;5.996;2023-06-10T10:24:20;28.73;;;26.80;;
20415;SDS011;10367;52.202;5.996;2023-06-10T10:26:51;29.67;;;27.37;;
20415;SDS011;10367;52.202;5.996;2023-06-10T10:29:28;27.53;;;25.33;;
20415;SDS011;10367;52.202;5.996;2023-06-10T10:31:59;28.73;;;26.70;;
20415;SDS011;10367;52.202;5.996;2023-06-10T10:34:29;29.10;;;27.00;;
20415;SDS011;10367;52.202;5.996;2023-06-10T10:37:12;30.30;;;27.70;;
20415;SDS011;10367;52.202;5.996;2023-06-10T10:39:41;29.37;;;27.33;;
20415;SDS011;10367;52.202;5.996;2023-06-10T10:42:10;30.27;;;28.07;;
20415;SDS011;10367;52.202;5.996;2023-06-10T10:44:40;29.00;;;26.80;;
20415;SDS011;10367;52.202;5.996;2023-06-10T10:47:09;30.03;;;27.80;;
20415;SDS011;10367;52.202;5.996;2023-06-10T10:49:39;29.30;;;27.30;;
20415;SDS011;10367;52.202;5.996;2023-06-10T10:52:12;30.70;;;28.53;;
20415;SDS011;10367;52.202;5.996;2023-06-10T10:54:43;29.43;;;27.43;;
20415;SDS011;10367;52.202;5.996;2023-06-10T10:57:14;29.83;;;27.83;;
20415;SDS011;10367;52.202;5.996;2023-06-10T10:59:51;29.43;;;27.23;;
20415;SDS011;10367;52.202;5.996;2023-06-10T11:02:32;27.80;;;26.00;;
20415;SDS011;10367;52.202;5.996;2023-06-10T11:05:06;29.47;;;26.97;;
20415;SDS011;10367;52.202;5.996;2023-06-10T11:07:37;30.37;;;28.17;;
20415;SDS011;10367;52.202;5.996;2023-06-10T11:10:07;33.53;;;30.93;;
20415;SDS011;10367;52.202;5.996;2023-06-10T11:12:49;28.50;;;26.70;;
20415;SDS011;10367;52.202;5.996;2023-06-10T11:15:23;29.90;;;27.70;;
20415;SDS011;10367;52.202;5.996;2023-06-10T11:18:11;29.13;;;27.03;;
20415;SDS011;10367;52.202;5.996;2023-06-10T11:20:45;30.50;;;28.37;;
20415;SDS011;10367;52.202;5.996;2023-06-10T11:23:29;29.53;;;27.60;;
20415;SDS011;10367;52.202;5.996;2023-06-10T11:26:12;30.97;;;28.83;;
20415;SDS011;10367;52.202;5.996;2023-06-10T11:29:02;28.77;;;26.87;;
20415;SDS011;10367;52.202;5.996;2023-06-10T11:31:33;27.60;;;25.70;;
20415;SDS011;10367;52.202;5.996;2023-06-10T11:34:06;30.50;;;28.30;;
20415;SDS011;10367;52.202;5.996;2023-06-10T11:36:37;31.00;;;28.60;;
20415;SDS011;10367;52.202;5.996;2023-06-10T11:39:11;29.73;;;27.43;;
20415;SDS011;10367;52.202;5.996;2023-06-10T11:41:40;30.27;;;28.07;;
20415;SDS011;10367;52.202;5.996;2023-06-10T11:44:09;30.47;;;28.23;;
20415;SDS011;10367;52.202;5.996;2023-06-10T11:46:43;30.07;;;27.80;;
20415;SDS011;10367;52.202;5.996;2023-06-10T11:49:12;29.67;;;27.13;;
20415;SDS011;10367;52.202;5.996;2023-06-10T11:51:42;30.97;;;28.43;;
20415;SDS011;10367;52.202;5.996;2023-06-10T11:54:18;29.97;;;27.43;;
20415;SDS011;10367;52.202;5.996;2023-06-10T11:56:47;31.73;;;29.13;;
20415;SDS011;10367;52.202;5.996;2023-06-10T11:59:16;29.27;;;27.30;;
20415;SDS011;10367;52.202;5.996;2023-06-10T12:01:45;30.93;;;28.80;;
20415;SDS011;10367;52.202;5.996;2023-06-10T12:04:14;29.57;;;27.50;;
20415;SDS011;10367;52.202;5.996;2023-06-10T12:06:46;31.80;;;29.57;;
20415;SDS011;10367;52.202;5.996;2023-06-10T12:09:21;31.53;;;29.33;;
20415;SDS011;10367;52.202;5.996;2023-06-10T12:11:55;29.47;;;27.37;;
20415;SDS011;10367;52.202;5.996;2023-06-10T12:17:18;30.53;;;28.33;;
20415;SDS011;10367;52.202;5.996;2023-06-10T12:19:49;30.58;;;28.45;;
20415;SDS011;10367;52.202;5.996;2023-06-10T12:22:17;30.17;;;28.17;;
20415;SDS011;10367;52.202;5.996;2023-06-10T12:24:58;30.45;;;27.85;;
20415;SDS011;10367;52.202;5.996;2023-06-10T12:27:28;30.13;;;27.73;;
20415;SDS011;10367;52.202;5.996;2023-06-10T12:30:00;30.27;;;28.10;;
20415;SDS011;10367;52.202;5.996;2023-06-10T12:32:38;30.05;;;27.92;;
20415;SDS011;10367;52.202;5.996;2023-06-10T12:35:09;31.27;;;28.75;;
20415;SDS011;10367;52.202;5.996;2023-06-10T12:37:41;29.45;;;27.35;;
20415;SDS011;10367;52.202;5.996;2023-06-10T12:40:11;32.05;;;29.45;;
20415;SDS011;10367;52.202;5.996;2023-06-10T12:42:40;30.17;;;28.08;;
20415;SDS011;10367;52.202;5.996;2023-06-10T12:45:09;30.92;;;28.38;;
20415;SDS011;10367;52.202;5.996;2023-06-10T12:47:40;30.52;;;28.42;;
20415;SDS011;10367;52.202;5.996;2023-06-10T12:50:09;31.33;;;29.02;;
20415;SDS011;10367;52.202;5.996;2023-06-10T12:52:39;30.65;;;28.55;;
20415;SDS011;10367;52.202;5.996;2023-06-10T12:55:09;29.23;;;27.25;;
20415;SDS011;10367;52.202;5.996;2023-06-10T12:57:48;31.33;;;29.10;;
20415;SDS011;10367;52.202;5.996;2023-06-10T13:00:18;31.13;;;28.83;;
20415;SDS011;10367;52.202;5.996;2023-06-10T13:02:48;30.13;;;28.15;;
20415;SDS011;10367;52.202;5.996;2023-06-10T13:05:17;28.90;;;26.85;;
20415;SDS011;10367;52.202;5.996;2023-06-10T13:07:47;29.73;;;27.25;;
20415;SDS011;10367;52.202;5.996;2023-06-10T13:10:16;31.40;;;29.23;;
20415;SDS011;10367;52.202;5.996;2023-06-10T13:12:49;30.48;;;28.58;;
20415;SDS011;10367;52.202;5.996;2023-06-10T13:15:18;30.02;;;28.15;;
20415;SDS011;10367;52.202;5.996;2023-06-10T13:17:47;31.50;;;29.25;;
20415;SDS011;10367;52.202;5.996;2023-06-10T13:20:18;32.05;;;29.55;;
20415;SDS011;10367;52.202;5.996;2023-06-10T13:22:48;31.95;;;29.50;;
20415;SDS011;10367;52.202;5.996;2023-06-10T13:25:17;30.77;;;28.67;;
20415;SDS011;10367;52.202;5.996;2023-06-10T13:27:46;30.33;;;28.33;;
20415;SDS011;10367;52.202;5.996;2023-06-10T13:30:16;30.58;;;28.40;;
20415;SDS011;10367;52.202;5.996;2023-06-10T13:32:45;30.92;;;28.83;;
20415;SDS011;10367;52.202;5.996;2023-06-10T13:35:14;32.47;;;30.02;;
20415;SDS011;10367;52.202;5.996;2023-06-10T13:37:43;31.38;;;29.13;;
20415;SDS011;10367;52.202;5.996;2023-06-10T13:40:11;30.77;;;28.75;;
20415;SDS011;10367;52.202;5.996;2023-06-10T13:42:40;30.60;;;28.63;;
20415;SDS011;10367;52.202;5.996;2023-06-10T13:45:09;32.42;;;30.00;;
20415;SDS011;10367;52.202;5.996;2023-06-10T13:47:40;32.90;;;30.40;;
20415;SDS011;10367;52.202;5.996;2023-06-10T13:50:09;31.23;;;29.00;;
20415;SDS011;10367;52.202;5.996;2023-06-10T13:52:40;31.48;;;29.35;;
20415;SDS011;10367;52.202;5.996;2023-06-10T13:55:09;31.45;;;29.17;;
20415;SDS011;10367;52.202;5.996;2023-06-10T13:57:38;30.45;;;28.50;;
20415;SDS011;10367;52.202;5.996;2023-06-10T14:00:07;31.33;;;29.15;;
20415;SDS011;10367;52.202;5.996;2023-06-10T14:02:37;31.75;;;29.33;;
20415;SDS011;10367;52.202;5.996;2023-06-10T14:05:07;31.85;;;29.48;;
20415;SDS011;10367;52.202;5.996;2023-06-10T14:07:37;31.55;;;29.42;;
20415;SDS011;10367;52.202;5.996;2023-06-10T14:10:07;32.50;;;29.67;;
20415;SDS011;10367;52.202;5.996;2023-06-10T14:12:38;29.83;;;27.90;;
20415;SDS011;10367;52.202;5.996;2023-06-10T14:15:07;29.70;;;27.80;;
20415;SDS011;10367;52.202;5.996;2023-06-10T14:17:37;31.63;;;29.50;;
20415;SDS011;10367;52.202;5.996;2023-06-10T14:20:08;31.95;;;29.70;;
20415;SDS011;10367;52.202;5.996;2023-06-10T14:22:39;30.27;;;28.17;;
20415;SDS011;10367;52.202;5.996;2023-06-10T14:25:08;32.17;;;29.73;;
20415;SDS011;10367;52.202;5.996;2023-06-10T14:27:38;32.05;;;29.63;;
20415;SDS011;10367;52.202;5.996;2023-06-10T14:30:07;31.67;;;29.42;;
20415;SDS011;10367;52.202;5.996;2023-06-10T14:32:36;30.65;;;28.40;;
20415;SDS011;10367;52.202;5.996;2023-06-10T14:35:05;29.27;;;27.27;;
20415;SDS011;10367;52.202;5.996;2023-06-10T14:37:36;31.00;;;28.98;;
20415;SDS011;10367;52.202;5.996;2023-06-10T14:40:05;31.08;;;29.00;;
20415;SDS011;10367;52.202;5.996;2023-06-10T14:42:34;30.77;;;28.60;;
20415;SDS011;10367;52.202;5.996;2023-06-10T14:45:04;30.98;;;28.77;;
20415;SDS011;10367;52.202;5.996;2023-06-10T14:47:34;32.20;;;30.00;;
20415;SDS011;10367;52.202;5.996;2023-06-10T14:50:03;30.80;;;28.80;;
20415;SDS011;10367;52.202;5.996;2023-06-10T14:52:32;30.85;;;28.75;;